DSNT2: Lake Texoma, Denison Dam

Data processed at Thu Jan 04 2018 23:09


All information presented herein is the property of the government of the United States of America and may be revised or deleted at any time without prior notice.
Dissemination of this information without the expressed written consent of the Public Affairs Office, Tulsa District U.S. Army Corps of Engineers is strictly prohibited.
These data are gathered electronically and, as presented, have not undergone any form of quality control. These data are not guaranteed to be valid or correct.
Go to home page.
Go to station list.

Upstream stations:

Downstream station:
Previous Day
Next Day
Current Day
    
SHEF ID:       DSNT2     Lake Texoma, Denison Dam
STATION TYPE:  Reservoir
Normal Pool:  Bottom =   590.00, Top =   616.95

               PRECIP PRECIP(A) ELEVATION   STORAGE   TW-ELEV    INFLOW   RELEASE  AIR-TEMP  WIND-DIRWIND-SPEED REL-HUMID SOLAR-RAD   VOLTAGE  BAT-LOAD
                   in        in        ft     ac-ft        ft       cfs       cfs         F       deg       mph         %      W/m2      volt      volt
              Ccp-Rev   Ccp-Rev   Ccp-Rev   Ccp-Rev   Ccp-Rev  Regi-Rev  Regi-Rev   Ccp-Rev   Ccp-Rev   Ccp-Rev   Ccp-Rev   Ccp-Rev   Ccp-Rev   Ccp-Rev
(US/Central)
01/02 00:00      0.00      0.00    617.55   2529882    506.59       160      4900     17.15     51.90      3.23     59.40      0.00     13.00     12.65
01/02 01:00      0.00      0.00    617.55   2529882    506.57       129      4900     16.70     64.90      2.98     61.05      0.00     12.98     12.65
01/02 02:00      0.00      0.00    617.55   2529882    506.57        99      4900     16.14     64.90      3.09     67.21      0.00     12.97     12.65
01/02 03:00      0.00      0.00    617.53   2528345    506.59         5      4900     15.49     67.30      3.74     66.91      0.00     12.96     12.65
01/02 04:00      0.00      0.00    617.52   2527576    506.56         0      4900     15.49     70.90      2.79     65.93      0.00     12.95     12.60
01/02 05:00      0.00      0.00    617.52   2527576    506.59         5      4900     14.18     68.80      3.30     69.41      0.00     12.94     12.60
01/02 06:00      0.00      0.00    617.52   2527576    506.59        10      4900     16.59     74.90      3.08     71.12      0.00     12.92     12.60
01/02 07:00      0.00      0.00    617.50   2526038    506.57        15      4900     17.02     52.60      4.80     65.99      0.00     12.90     12.60
01/02 08:00      0.00      0.00    617.50   2526038    506.59        45      4900     17.15     58.40      5.21     62.39     11.00     12.92     12.60
01/02 09:00      0.00      0.00    617.49   2525270    506.59       646      4900     18.68     58.00      5.08     59.82     84.00     13.14     12.60
01/02 10:00      0.00      0.00    617.50   2526038    506.60       691      4900     20.10     87.20      2.86     54.82    134.00     13.50     12.77
01/02 11:00      0.00      0.00    617.49   2525270    506.57       735      4900     19.67     60.70      2.96     50.67    195.00     13.93     13.12
01/02 12:00      0.00      0.00    617.49   2525270    506.59      2693      4900     21.76     68.50      2.57     43.22    266.00     13.73     13.42
01/02 13:00      0.00      0.00    617.48   2524501    506.56      2697      4900     21.87     30.60      5.90     39.26    262.00     14.13     13.42
01/02 14:00      0.00      0.00    617.49   2525270    506.56      2130      4900     23.52     33.90      4.28     40.54    195.00     13.87     13.42
01/02 15:00      0.00      0.00    617.48   2524501    506.54      2115      4900     23.41     19.40      4.83     40.42    135.00     14.22     13.36
01/02 16:00      0.00      0.00    617.48   2524501    506.58      2099      4900     23.63     34.30      4.64     37.24     66.00     13.39     13.30
01/02 17:00      0.00      0.00    617.47   2523732    506.57       172      4900     23.52     25.40      6.62     38.58     26.00     13.16     13.00
01/02 18:00      0.00      0.00    617.47   2523732    506.56       173      4900     23.74     21.90      6.78     40.54      0.00     13.08     12.83
01/02 19:00      0.00      0.00    617.46   2522964    506.56       153      4900     23.63     30.40      5.40     43.89      0.00     13.05     12.71
01/02 20:00      0.00      0.00    617.46   2522964    506.59       133      4900     23.63     33.30      5.63     44.81      0.00     13.02     12.71
01/02 21:00      0.00      0.00    617.46   2522964    506.56       113      4900     25.83     29.70      4.60     49.76      0.00     13.01     12.65
01/02 22:00      0.00      0.00    617.45   2522195    506.56        92      4900     24.94    328.30      8.69     49.32      0.00     12.99     12.65
01/02 23:00      0.00      0.00    617.45   2522195    506.56        72      4900     24.84    258.30      8.40     58.37      0.00     12.97     12.65